createdAt,value
2023-04-24T08:24:16.893Z,99498.28
2023-04-24T08:26:43.672Z,99490.50
2023-04-24T08:29:10.516Z,99500.03
2023-04-24T08:31:37.176Z,99493.91
2023-04-24T08:34:03.767Z,99502.47
2023-04-24T08:36:43.524Z,99498.03
2023-04-24T08:39:13.021Z,99506.84
2023-04-24T08:41:43.749Z,99509.56
2023-04-24T08:44:11.098Z,99509.56
2023-04-24T08:46:38.455Z,99515.69
2023-04-24T08:49:05.714Z,99519.84
2023-04-24T08:51:32.498Z,99526.06
2023-04-24T08:53:59.080Z,99515.56
2023-04-24T08:56:25.976Z,99521.56
2023-04-24T08:58:54.537Z,99517.28
2023-04-24T09:01:21.513Z,99515.50
2023-04-24T09:03:50.956Z,99511.94
2023-04-24T09:06:20.315Z,99512.81
2023-04-24T09:08:51.089Z,99512.00
2023-04-24T09:11:18.319Z,99512.78
2023-04-24T09:13:45.154Z,99512.63
2023-04-24T09:16:12.597Z,99522.44
2023-04-24T09:18:39.243Z,99525.06
2023-04-24T09:21:09.254Z,99533.84
2023-04-24T09:23:36.201Z,99535.44
2023-04-24T09:26:05.881Z,99532.81
2023-04-24T09:28:33.725Z,99541.59
2023-04-24T09:31:09.728Z,99539.84
2023-04-24T09:33:37.320Z,99539.97
2023-04-24T09:36:04.573Z,99543.56
2023-04-24T09:38:38.709Z,99540.84
2023-04-24T09:41:09.669Z,99542.66
2023-04-24T09:43:36.762Z,99534.81
2023-04-24T09:46:09.583Z,99536.63
2023-04-24T09:48:38.129Z,99538.34
2023-04-24T09:51:12.202Z,99536.47
2023-04-24T09:53:40.203Z,99551.22
2023-04-24T09:56:11.427Z,99539.94
2023-04-24T09:58:38.173Z,99542.53
2023-04-24T10:01:05.730Z,99557.13
2023-04-24T10:03:33.846Z,99546.00
2023-04-24T10:06:02.080Z,99547.66
2023-04-24T10:08:35.531Z,99555.63
2023-04-24T10:11:02.867Z,99562.53
2023-04-24T10:13:29.918Z,99564.19
2023-04-24T10:15:57.384Z,99571.00
2023-04-24T10:18:25.825Z,99572.78
2023-04-24T10:20:55.777Z,99575.53
2023-04-24T10:23:24.065Z,99579.78
2023-04-24T10:25:51.976Z,99582.38
2023-04-24T10:28:19.800Z,99585.97
2023-04-24T10:30:46.530Z,99587.69
2023-04-24T10:33:14.210Z,99592.13
2023-04-24T10:35:50.832Z,99599.06
2023-04-24T10:38:25.766Z,99602.50
2023-04-24T10:40:52.376Z,99606.81
2023-04-24T10:43:19.689Z,99610.25
2023-04-24T10:46:06.986Z,99614.69
2023-04-24T10:48:35.194Z,99617.25
2023-04-24T10:51:02.397Z,99628.53
2023-04-24T10:53:30.645Z,99627.66
2023-04-24T10:56:04.203Z,99638.03
2023-04-24T10:58:54.349Z,99640.66
2023-04-24T11:01:29.302Z,99644.09
2023-04-24T11:04:04.581Z,99644.13
2023-04-24T11:06:32.775Z,99657.91
2023-04-24T11:09:04.938Z,99655.34
2023-04-24T11:11:31.805Z,99656.22
2023-04-24T11:13:58.348Z,99665.75
2023-04-24T11:16:58.484Z,99663.13
2023-04-24T11:19:27.455Z,99666.56
2023-04-24T11:22:02.904Z,99673.47
2023-04-24T11:24:40.810Z,99680.41
2023-04-24T11:27:23.283Z,99681.31
2023-04-24T11:29:56.087Z,99691.72
2023-04-24T11:32:39.254Z,99687.38
2023-04-24T11:35:14.975Z,99702.09
2023-04-24T11:40:29.234Z,99699.44
2023-04-24T11:43:00.332Z,99702.81
2023-04-24T11:45:31.532Z,99720.03
2023-04-24T11:47:58.561Z,99728.69
2023-04-24T11:50:28.203Z,99744.16
2023-04-24T11:52:54.876Z,99757.16
2023-04-24T11:55:21.428Z,99752.81
2023-04-24T11:57:50.743Z,99766.53
2023-04-24T12:00:19.979Z,99769.25
2023-04-24T12:02:47.227Z,99770.09
2023-04-24T12:05:22.196Z,99780.50
2023-04-24T12:07:49.809Z,99780.47
2023-04-24T12:10:24.859Z,99770.09
2023-04-24T12:12:52.605Z,99791.78
2023-04-24T12:15:22.688Z,99787.38
2023-04-24T12:17:52.441Z,99801.34
2023-04-24T12:20:26.139Z,99797.84
2023-04-24T12:22:55.780Z,99802.19
2023-04-24T12:25:27.360Z,99813.59
2023-04-24T12:28:03.794Z,99813.59
2023-04-24T12:30:32.193Z,99818.66
2023-04-24T12:33:01.431Z,99822.31
2023-04-24T12:35:29.991Z,99817.91
2023-04-24T12:37:56.650Z,99823.97
2023-04-24T12:40:26.547Z,99834.44
2023-04-24T12:42:53.283Z,99837.13
2023-04-24T12:45:20.530Z,99837.13
2023-04-24T12:47:47.488Z,99844.75
2023-04-24T12:50:15.760Z,99844.84
2023-04-24T12:52:43.379Z,99846.34
2023-04-24T12:55:11.033Z,99848.91
2023-04-24T12:57:40.712Z,99864.41
2023-04-24T13:00:08.824Z,99854.97
2023-04-24T13:02:35.760Z,99870.50
2023-04-24T13:05:03.318Z,99869.59
2023-04-24T13:07:30.072Z,99868.91
2023-04-24T13:09:57.920Z,99885.28
2023-04-24T13:12:27.664Z,99875.97
2023-04-24T13:14:54.988Z,99885.28
2023-04-24T13:17:21.665Z,99893.13
2023-04-24T13:19:51.854Z,99884.63
2023-04-24T13:22:21.875Z,99882.81
2023-04-24T13:24:49.809Z,99889.88
2023-04-24T13:27:17.119Z,99889.09
2023-04-24T13:29:43.766Z,99889.84
2023-04-24T13:32:10.833Z,99891.72
2023-04-24T13:34:37.811Z,99892.50
2023-04-24T13:37:05.099Z,99895.78
2023-04-24T13:39:31.983Z,99900.19
2023-04-24T13:41:59.086Z,99910.50
2023-04-24T13:44:26.601Z,99904.28
2023-04-24T13:46:55.237Z,99910.41
2023-04-24T13:49:22.889Z,99901.84
2023-04-24T13:51:49.566Z,99905.41
2023-04-24T13:54:16.128Z,99901.94
2023-04-24T13:56:42.875Z,99903.66
2023-04-24T13:59:09.723Z,99908.63
2023-04-24T14:01:36.919Z,99906.19
2023-04-24T14:04:03.787Z,99912.19
2023-04-24T14:06:30.559Z,99904.56
2023-04-24T14:08:57.137Z,99898.63
2023-04-24T14:11:23.994Z,99908.91
2023-04-24T14:13:51.085Z,99908.19
2023-04-24T14:16:17.944Z,99913.34
2023-04-24T14:18:44.568Z,99913.38
2023-04-24T14:21:11.167Z,99918.56
2023-04-24T14:23:37.705Z,99916.78
2023-04-24T14:26:04.327Z,99925.56
2023-04-24T14:28:30.848Z,99929.88
2023-04-24T14:30:57.494Z,99929.81
2023-04-24T14:33:24.143Z,99926.41
2023-04-24T14:35:50.741Z,99933.22
2023-04-24T14:38:17.303Z,99939.94
2023-04-24T14:43:13.338Z,99941.38
2023-04-24T14:45:41.761Z,99945.03
2023-04-24T14:48:09.537Z,99939.78
2023-04-24T14:50:36.678Z,99942.50
2023-04-24T14:53:03.329Z,99946.81
2023-04-24T14:55:30.016Z,99949.69
2023-04-24T14:57:56.752Z,99962.56
2023-04-24T15:00:24.930Z,99957.44
2023-04-24T15:02:51.875Z,99964.22
2023-04-24T15:05:19.057Z,99971.81
2023-04-24T15:07:46.389Z,99967.53
2023-04-24T15:10:13.084Z,99969.03
2023-04-24T15:12:39.718Z,99972.78
2023-04-24T15:15:07.324Z,99977.13
2023-04-24T15:17:34.026Z,99984.13
2023-04-24T15:20:01.834Z,99979.69
2023-04-24T15:22:28.611Z,99987.56
2023-04-24T15:24:55.213Z,99982.38
2023-04-24T15:27:22.097Z,99977.19
2023-04-24T15:29:48.798Z,99992.00
2023-04-24T15:32:16.797Z,99986.78
2023-04-24T15:34:43.737Z,99990.09
2023-04-24T15:37:11.575Z,99991.97
2023-04-24T15:39:38.231Z,99985.00
2023-04-24T15:42:04.830Z,99992.84
2023-04-24T15:44:31.415Z,99998.97
2023-04-24T15:47:01.575Z,99998.22
2023-04-24T15:49:28.133Z,99990.25
2023-04-24T15:51:54.701Z,99993.47
2023-04-24T15:54:21.579Z,99998.03
2023-04-24T15:56:50.726Z,99999.59
2023-04-24T15:59:18.936Z,99998.03
2023-04-24T16:01:45.741Z,100004.13
2023-04-24T16:04:12.709Z,100011.03
2023-04-24T16:06:39.435Z,100019.75
2023-04-24T16:09:06.472Z,100008.44
2023-04-24T16:11:34.013Z,100006.63
2023-04-24T16:14:00.633Z,100009.31
2023-04-24T16:16:27.997Z,100016.22
2023-04-24T16:18:54.682Z,100020.78
2023-04-24T16:21:21.275Z,100017.22
2023-04-24T16:23:47.891Z,100018.09
2023-04-24T16:26:15.546Z,100025.13
2023-04-24T16:28:43.327Z,100023.22
2023-04-24T16:31:10.237Z,100025.69
2023-04-24T16:33:36.871Z,100030.06
2023-04-24T16:36:05.250Z,100042.31
2023-04-24T16:38:33.250Z,100046.94
2023-04-24T16:40:59.879Z,100053.03
2023-04-24T16:43:27.197Z,100048.81
2023-04-24T16:45:54.370Z,100047.09
2023-04-24T16:48:20.950Z,100055.75
2023-04-24T16:50:47.684Z,100049.88
2023-04-24T16:53:14.312Z,100045.66
2023-04-24T16:55:40.929Z,100054.56
2023-04-24T16:58:07.542Z,100052.00
2023-04-24T17:00:34.224Z,100041.72
2023-04-24T17:03:01.361Z,100054.81
2023-04-24T17:05:28.152Z,100054.78
2023-04-24T17:07:54.967Z,100044.44
2023-04-24T17:10:21.825Z,100058.97
2023-04-24T17:12:48.364Z,100055.44
2023-04-24T17:15:15.205Z,100064.63
2023-04-24T17:17:44.141Z,100066.50
2023-04-24T17:20:21.298Z,100063.00
2023-04-24T17:22:49.029Z,100068.81
2023-04-24T17:25:15.773Z,100059.31
2023-04-24T17:27:42.331Z,100063.50
2023-04-24T17:30:09.485Z,100059.25
2023-04-24T17:32:36.129Z,100062.66
2023-04-24T17:35:03.527Z,100062.91
2023-04-24T17:37:30.171Z,100055.88
2023-04-24T17:39:56.825Z,100060.16
2023-04-24T17:42:23.520Z,100063.59
2023-04-24T17:44:50.142Z,100051.50
2023-04-24T17:47:16.807Z,100056.97
2023-04-24T17:49:43.635Z,100049.97
2023-04-24T17:52:11.706Z,100059.34
2023-04-24T17:54:38.283Z,100064.56
2023-04-24T17:57:04.924Z,100059.22
2023-04-24T17:59:31.535Z,100060.84
2023-04-24T18:01:58.408Z,100063.66
2023-04-24T18:04:26.146Z,100071.31
2023-04-24T18:06:52.842Z,100073.19
2023-04-24T18:09:20.828Z,100070.59
2023-04-24T18:11:49.173Z,100075.91
2023-04-24T18:14:16.179Z,100071.72
2023-04-24T18:16:42.931Z,100078.50
2023-04-24T18:19:09.741Z,100070.88
2023-04-24T18:21:36.441Z,100078.72
2023-04-24T18:24:03.415Z,100080.47
2023-04-24T18:26:30.123Z,100082.69
2023-04-24T18:28:56.998Z,100078.56
2023-04-24T18:31:23.982Z,100082.75
2023-04-24T18:33:50.607Z,100082.00
2023-04-24T18:36:17.311Z,100077.47
2023-04-24T18:38:44.217Z,100088.00
2023-04-24T18:41:10.856Z,100093.03
2023-04-24T18:43:37.444Z,100097.50
2023-04-24T18:46:04.037Z,100096.72
2023-04-24T18:48:31.223Z,100093.25
2023-04-24T18:50:57.999Z,100093.94
2023-04-24T18:53:24.707Z,100106.84
2023-04-24T18:55:51.422Z,100103.38
2023-04-24T18:58:18.236Z,100105.19
2023-04-24T19:00:44.951Z,100099.09
2023-04-24T19:03:11.775Z,100112.69
2023-04-24T19:05:38.452Z,100112.66
2023-04-24T19:08:05.113Z,100118.88
2023-04-24T19:10:33.965Z,100115.47
2023-04-24T19:13:01.789Z,100115.28
2023-04-24T19:15:29.845Z,100128.41
2023-04-24T19:17:56.792Z,100130.75
2023-04-24T19:20:23.564Z,100127.25
2023-04-24T19:22:50.852Z,100129.34
2023-04-24T19:25:17.706Z,100131.81
2023-04-24T19:27:44.305Z,100128.25
2023-04-24T19:30:11.362Z,100138.72
2023-04-24T19:32:37.978Z,100138.28
2023-04-24T19:35:05.083Z,100140.16
2023-04-24T19:37:32.310Z,100137.81
2023-04-24T19:39:59.021Z,100135.81
2023-04-24T19:42:36.009Z,100151.75
2023-04-24T19:45:11.655Z,100142.28
2023-04-24T19:47:38.773Z,100145.31
2023-04-24T19:50:06.185Z,100148.41
2023-04-24T19:52:32.793Z,100145.13
2023-04-24T19:54:59.553Z,100153.59
2023-04-24T19:57:26.132Z,100145.16
2023-04-24T19:59:52.660Z,100146.72
2023-04-24T20:02:19.293Z,100146.34
2023-04-24T20:04:46.155Z,100146.69
2023-04-24T20:07:12.882Z,100152.09
2023-04-24T20:09:39.469Z,100143.22
2023-04-24T20:12:06.086Z,100145.91
2023-04-24T20:14:32.914Z,100148.66
2023-04-24T20:16:59.510Z,100148.44
2023-04-24T20:19:26.158Z,100158.72
2023-04-24T20:21:54.128Z,100157.59
2023-04-24T20:24:20.752Z,100153.44
2023-04-24T20:26:47.553Z,100155.13
2023-04-24T20:29:14.130Z,100164.34
2023-04-24T20:31:41.606Z,100157.56
2023-04-24T20:34:08.620Z,100161.06
2023-04-24T20:36:35.302Z,100155.59
2023-04-24T20:39:02.171Z,100160.81
2023-04-24T20:41:30.275Z,100159.22
2023-04-24T20:43:56.967Z,100159.13
2023-04-24T20:46:23.611Z,100157.28
2023-04-24T20:48:50.843Z,100166.59
2023-04-24T20:51:19.529Z,100167.50
2023-04-24T20:53:46.186Z,100164.66
2023-04-24T20:56:12.783Z,100160.41
2023-04-24T20:58:39.768Z,100166.19
2023-04-24T21:01:06.631Z,100163.59
2023-04-24T21:03:33.519Z,100169.22
2023-04-24T21:06:00.457Z,100164.44
2023-04-24T21:08:27.081Z,100161.56
2023-04-24T21:10:53.707Z,100163.66
2023-04-24T21:13:20.260Z,100162.06
2023-04-24T21:15:46.883Z,100164.78
2023-04-24T21:18:13.699Z,100159.38
2023-04-24T21:20:40.397Z,100160.09
2023-04-24T21:23:07.151Z,100162.00
2023-04-24T21:25:34.934Z,100161.69
2023-04-24T21:28:01.924Z,100162.53
2023-04-24T21:30:29.307Z,100165.16
2023-04-24T21:32:57.155Z,100157.50
2023-04-24T21:35:23.795Z,100170.38
2023-04-24T21:37:50.573Z,100170.22
2023-04-24T21:40:18.835Z,100162.56
2023-04-24T21:42:47.921Z,100169.34
2023-04-24T21:45:14.804Z,100169.25
2023-04-24T21:47:41.770Z,100167.59
2023-04-24T21:50:08.985Z,100161.50
2023-04-24T21:52:35.750Z,100166.31
2023-04-24T21:55:04.906Z,100152.72
2023-04-24T21:57:31.507Z,100157.53
2023-04-24T21:59:58.390Z,100157.91
2023-04-24T22:02:25.055Z,100152.72
2023-04-24T22:04:52.865Z,100158.78
2023-04-24T22:07:19.559Z,100155.81
2023-04-24T22:09:46.175Z,100154.97
2023-04-24T22:12:12.826Z,100159.97
2023-04-24T22:14:39.376Z,100158.47
2023-04-24T22:17:05.906Z,100157.03
2023-04-24T22:19:32.515Z,100161.25
2023-04-24T22:21:59.098Z,100156.25
2023-04-24T22:24:25.629Z,100156.16
2023-04-24T22:26:52.187Z,100151.16
2023-04-24T22:29:18.767Z,100153.81
2023-04-24T22:31:45.631Z,100149.75
2023-04-24T22:34:12.324Z,100155.47
2023-04-24T22:36:38.849Z,100150.97
2023-04-24T22:39:05.611Z,100149.34
2023-04-24T22:41:32.218Z,100149.78
2023-04-24T22:43:59.029Z,100144.53
2023-04-24T22:46:25.715Z,100147.09
2023-04-24T22:48:52.273Z,100148.06
2023-04-24T22:51:18.886Z,100148.09
2023-04-24T22:53:46.042Z,100148.94
2023-04-24T22:56:12.666Z,100144.22
2023-04-24T22:58:39.274Z,100145.75
2023-04-24T23:01:05.890Z,100148.06
2023-04-24T23:03:33.265Z,100154.06
2023-04-24T23:06:00.200Z,100149.78
2023-04-24T23:08:26.871Z,100147.44
2023-04-24T23:10:53.421Z,100143.91
2023-04-24T23:13:20.078Z,100152.88
2023-04-24T23:15:46.610Z,100147.50
2023-04-24T23:18:13.165Z,100146.34
2023-04-24T23:20:39.895Z,100143.47
2023-04-24T23:23:06.399Z,100140.53
2023-04-24T23:25:33.126Z,100140.16
2023-04-24T23:27:59.768Z,100152.72
2023-04-24T23:30:26.369Z,100152.16
2023-04-24T23:32:52.939Z,100153.47
2023-04-24T23:35:19.541Z,100144.84
2023-04-24T23:37:46.228Z,100152.00
2023-04-24T23:40:13.598Z,100147.03
